Time,TemperatureF,DewpointF,PressureIn,WindDirection,WindDirectionDegrees,WindSpeedMPH,WindSpeedGustMPH,Humidity,HourlyPrecipIn,Conditions,Clouds,dailyrainin,SoftwareType,DateUTC
2013-07-25 00:04:00,79.5,68.9,29.93,North,0,0.0,0.0,70,0.00,,,0.00,WUHU216HW,2013-07-25 05:04:00,
2013-07-25 00:19:00,79.3,69.5,29.93,North,0,0.0,0.0,72,0.00,,,0.00,WUHU216HW,2013-07-25 05:19:00,
2013-07-25 00:51:00,78.4,69.8,29.94,North,0,0.0,0.0,75,0.00,,,0.00,WUHU216HW,2013-07-25 05:51:00,
2013-07-25 01:12:00,77.9,70.0,29.94,North,0,0.0,0.0,77,0.00,,,0.00,WUHU216HW,2013-07-25 06:12:00,
2013-07-25 01:20:00,77.7,70.2,29.94,North,0,0.0,0.0,78,0.00,,,0.00,WUHU216HW,2013-07-25 06:20:00,
2013-07-25 01:25:00,77.7,70.2,29.94,North,0,0.0,0.0,78,0.00,,,0.00,WUHU216HW,2013-07-25 06:25:00,
2013-07-25 01:41:00,77.5,70.1,29.95,North,0,0.0,0.0,78,0.00,,,0.00,WUHU216HW,2013-07-25 06:41:00,
2013-07-25 01:46:00,77.5,70.1,29.95,North,0,0.0,0.0,78,0.00,,,0.00,WUHU216HW,2013-07-25 06:46:00,
2013-07-25 02:06:00,77.1,70.1,29.95,North,0,0.0,0.0,80,0.00,,,0.00,WUHU216HW,2013-07-25 07:06:00,
2013-07-25 02:11:00,77.1,70.1,29.95,North,0,0.0,0.0,80,0.00,,,0.00,WUHU216HW,2013-07-25 07:11:00,
2013-07-25 02:16:00,76.8,70.1,29.95,North,0,0.0,0.0,80,0.00,,,0.00,WUHU216HW,2013-07-25 07:16:00,
2013-07-25 02:21:00,76.8,70.1,29.95,North,0,0.0,0.0,80,0.00,,,0.00,WUHU216HW,2013-07-25 07:21:00,
2013-07-25 02:26:00,76.8,70.1,29.95,North,0,0.0,0.0,80,0.00,,,0.00,WUHU216HW,2013-07-25 07:26:00,
2013-07-25 03:14:00,75.9,70.4,29.95,North,0,0.0,0.0,83,0.00,,,0.00,WUHU216HW,2013-07-25 08:14:00,
2013-07-25 03:18:00,75.7,70.2,29.95,North,0,0.0,0.0,83,0.00,,,0.00,WUHU216HW,2013-07-25 08:18:00,
2013-07-25 03:19:00,75.7,70.2,29.95,North,0,0.0,0.0,83,0.00,,,0.00,WUHU216HW,2013-07-25 08:19:00,
2013-07-25 03:24:00,75.7,70.2,29.95,North,0,0.0,0.0,83,0.00,,,0.00,WUHU216HW,2013-07-25 08:24:00,
2013-07-25 03:43:00,75.5,70.0,29.96,North,0,0.0,0.0,84,0.00,,,0.00,WUHU216HW,2013-07-25 08:43:00,
2013-07-25 04:00:00,75.2,70.0,29.96,North,0,0.0,0.0,84,0.00,,,0.00,WUHU216HW,2013-07-25 09:00:00,
2013-07-25 04:07:00,75.2,70.0,29.96,North,0,0.0,0.0,84,0.00,,,0.00,WUHU216HW,2013-07-25 09:07:00,
2013-07-25 04:37:00,74.6,69.8,29.96,North,0,0.0,0.0,85,0.00,,,0.00,WUHU216HW,2013-07-25 09:37:00,
2013-07-25 04:42:00,74.4,69.7,29.96,North,0,0.0,0.0,85,0.00,,,0.00,WUHU216HW,2013-07-25 09:42:00,
2013-07-25 04:47:00,74.3,69.5,29.96,North,0,0.0,0.0,85,0.00,,,0.00,WUHU216HW,2013-07-25 09:47:00,
2013-07-25 05:00:00,74.1,69.3,29.96,North,0,0.0,0.0,85,0.00,,,0.00,WUHU216HW,2013-07-25 10:00:00,
2013-07-25 05:05:00,74.1,69.3,29.96,North,0,0.0,0.0,86,0.00,,,0.00,WUHU216HW,2013-07-25 10:05:00,
2013-07-25 05:18:00,73.9,69.5,29.97,North,0,0.0,0.0,86,0.00,,,0.00,WUHU216HW,2013-07-25 10:18:00,
2013-07-25 05:23:00,73.9,69.5,29.97,North,0,0.0,0.0,86,0.00,,,0.00,WUHU216HW,2013-07-25 10:23:00,
2013-07-25 05:28:00,73.9,69.5,29.97,North,0,0.0,0.0,86,0.00,,,0.00,WUHU216HW,2013-07-25 10:28:00,
2013-07-25 05:59:00,73.2,69.1,29.97,North,0,0.0,0.0,87,0.00,,,0.00,WUHU216HW,2013-07-25 10:59:00,
2013-07-25 06:04:00,73.2,69.1,29.97,North,0,0.0,0.0,87,0.00,,,0.00,WUHU216HW,2013-07-25 11:04:00,
2013-07-25 06:09:00,73.2,69.1,29.97,North,0,0.0,0.0,87,0.00,,,0.00,WUHU216HW,2013-07-25 11:09:00,
2013-07-25 07:04:00,73.0,69.2,29.99,North,0,0.0,0.0,88,0.00,,,0.00,WUHU216HW,2013-07-25 12:04:00,
2013-07-25 07:11:00,73.0,69.2,29.99,North,0,0.0,0.0,88,0.00,,,0.00,WUHU216HW,2013-07-25 12:11:00,
2013-07-25 07:55:00,74.6,70.9,29.99,North,0,0.0,0.0,88,0.00,,,0.00,WUHU216HW,2013-07-25 12:55:00,
2013-07-25 08:00:00,75.5,71.4,29.99,North,0,0.0,0.0,87,0.00,,,0.00,WUHU216HW,2013-07-25 13:00:00,
2013-07-25 08:05:00,75.5,71.4,29.99,North,0,0.0,0.0,87,0.00,,,0.00,WUHU216HW,2013-07-25 13:05:00,
2013-07-25 08:10:00,76.2,71.8,29.99,North,0,0.0,0.0,86,0.00,,,0.00,WUHU216HW,2013-07-25 13:10:00,
2013-07-25 08:15:00,76.8,71.9,30.00,North,0,0.0,0.0,84,0.00,,,0.00,WUHU216HW,2013-07-25 13:15:00,
2013-07-25 08:20:00,77.1,71.9,30.00,North,0,0.0,0.0,84,0.00,,,0.00,WUHU216HW,2013-07-25 13:20:00,
2013-07-25 08:33:00,78.0,72.1,30.00,North,0,0.0,0.0,82,0.00,,,0.00,WUHU216HW,2013-07-25 13:33:00,
2013-07-25 08:38:00,78.6,71.9,30.00,North,0,0.0,0.0,80,0.00,,,0.00,WUHU216HW,2013-07-25 13:38:00,
2013-07-25 08:43:00,78.6,71.9,30.00,North,0,0.0,0.0,78,0.00,,,0.00,WUHU216HW,2013-07-25 13:43:00,
2013-07-25 08:48:00,79.1,70.5,30.00,North,0,0.0,0.0,75,0.00,,,0.00,WUHU216HW,2013-07-25 13:48:00,
2013-07-25 08:53:00,79.8,70.4,30.00,North,0,0.0,0.0,73,0.00,,,0.00,WUHU216HW,2013-07-25 13:53:00,
2013-07-25 08:58:00,79.8,70.4,30.00,North,0,0.0,0.0,73,0.00,,,0.00,WUHU216HW,2013-07-25 13:58:00,
2013-07-25 09:03:00,80.7,70.5,30.00,North,0,0.0,0.0,71,0.00,,,0.00,WUHU216HW,2013-07-25 14:03:00,
2013-07-25 09:08:00,80.7,70.5,30.00,North,0,0.0,0.0,71,0.00,,,0.00,WUHU216HW,2013-07-25 14:08:00,
2013-07-25 10:00:00,86.5,70.5,30.00,North,0,0.0,0.0,59,0.00,,,0.00,WUHU216HW,2013-07-25 15:00:00,
2013-07-25 10:28:00,88.7,70.4,30.00,North,0,0.0,0.0,56,0.00,,,0.00,WUHU216HW,2013-07-25 15:28:00,
2013-07-25 12:58:00,96.4,71.5,30.01,North,0,0.0,0.0,45,0.00,,,0.00,WUHU216HW,2013-07-25 17:58:00,
2013-07-25 13:43:00,99.1,71.3,30.00,North,0,0.0,0.0,41,0.00,,,0.00,WUHU216HW,2013-07-25 18:43:00,
2013-07-25 13:48:00,99.1,71.3,30.00,North,0,0.0,0.0,41,0.00,,,0.00,WUHU216HW,2013-07-25 18:48:00,
2013-07-25 14:35:00,101.1,69.9,29.99,North,0,0.0,0.0,37,0.00,,,0.00,WUHU216HW,2013-07-25 19:35:00,
2013-07-25 14:40:00,101.1,69.9,29.99,North,0,0.0,0.0,37,0.00,,,0.00,WUHU216HW,2013-07-25 19:40:00,
2013-07-25 15:11:00,99.8,71.2,29.98,North,0,0.0,0.0,40,0.00,,,0.00,WUHU216HW,2013-07-25 20:11:00,
2013-07-25 15:16:00,99.5,71.6,29.98,North,0,0.0,0.0,41,0.00,,,0.00,WUHU216HW,2013-07-25 20:16:00,
2013-07-25 15:20:00,100.7,72.1,29.99,North,0,0.0,0.0,40,0.00,,,0.00,WUHU216HW,2013-07-25 20:20:00,
2013-07-25 15:21:00,99.5,71.6,29.98,North,0,0.0,0.0,41,0.00,,,0.00,WUHU216HW,2013-07-25 20:21:00,
2013-07-25 15:27:00,100.7,72.1,29.99,North,0,0.0,0.0,40,0.00,,,0.00,WUHU216HW,2013-07-25 20:27:00,
2013-07-25 16:41:00,102.3,68.4,29.97,North,0,0.0,0.0,34,0.00,,,0.00,WUHU216HW,2013-07-25 21:41:00,
2013-07-25 16:46:00,102.3,68.4,29.97,North,0,0.0,0.0,34,0.00,,,0.00,WUHU216HW,2013-07-25 21:46:00,
2013-07-25 17:00:00,100.0,67.3,29.97,North,0,0.0,0.0,37,0.00,,,0.00,WUHU216HW,2013-07-25 22:00:00,
2013-07-25 17:05:00,100.5,69.4,29.97,North,0,0.0,0.0,37,0.00,,,0.00,WUHU216HW,2013-07-25 22:05:00,
2013-07-25 17:10:00,100.5,69.4,29.97,North,0,0.0,0.0,37,0.00,,,0.00,WUHU216HW,2013-07-25 22:10:00,
2013-07-25 17:20:00,99.6,67.8,29.96,North,0,0.0,0.0,36,0.00,,,0.00,WUHU216HW,2013-07-25 22:20:00,
2013-07-25 17:37:00,98.2,66.5,29.96,North,0,0.0,0.0,36,0.00,,,0.00,WUHU216HW,2013-07-25 22:37:00,
2013-07-25 17:42:00,98.2,66.5,29.96,North,0,0.0,0.0,36,0.00,,,0.00,WUHU216HW,2013-07-25 22:42:00,
2013-07-25 17:49:00,97.8,67.0,29.96,North,0,0.0,0.0,37,0.00,,,0.00,WUHU216HW,2013-07-25 22:49:00,
2013-07-25 17:54:00,97.8,67.0,29.96,North,0,0.0,0.0,37,0.00,,,0.00,WUHU216HW,2013-07-25 22:54:00,
2013-07-25 18:01:00,97.1,67.2,29.95,North,0,0.0,0.0,38,0.00,,,0.00,WUHU216HW,2013-07-25 23:01:00,
2013-07-25 18:45:00,94.6,64.1,29.95,North,0,0.0,0.0,38,0.00,,,0.00,WUHU216HW,2013-07-25 23:45:00,
2013-07-25 18:50:00,94.6,64.1,29.95,North,0,0.0,0.0,38,0.00,,,0.00,WUHU216HW,2013-07-25 23:50:00,
2013-07-25 18:57:00,94.6,64.1,29.95,North,0,0.0,0.0,39,0.00,,,0.00,WUHU216HW,2013-07-25 23:57:00,
2013-07-25 19:02:00,94.6,64.1,29.95,North,0,0.0,0.0,39,0.00,,,0.00,WUHU216HW,2013-07-26 00:02:00,
2013-07-25 19:57:00,90.1,65.1,29.95,North,0,0.0,0.0,44,0.00,,,0.00,WUHU216HW,2013-07-26 00:57:00,
2013-07-25 20:02:00,90.1,65.1,29.95,North,0,0.0,0.0,44,0.00,,,0.00,WUHU216HW,2013-07-26 01:02:00,
2013-07-25 20:40:00,87.0,66.8,29.94,North,0,0.0,0.0,51,0.00,,,0.00,WUHU216HW,2013-07-26 01:40:00,
2013-07-25 20:59:00,85.1,66.0,29.95,North,0,0.0,0.0,53,0.00,,,0.00,WUHU216HW,2013-07-26 01:59:00,
2013-07-25 21:59:00,83.1,65.7,29.97,North,0,0.0,0.0,57,0.00,,,0.00,WUHU216HW,2013-07-26 02:59:00,
2013-07-25 22:04:00,83.1,65.7,29.97,North,0,0.0,0.0,58,0.00,,,0.00,WUHU216HW,2013-07-26 03:04:00,
2013-07-25 22:09:00,83.1,65.7,29.97,North,0,0.0,0.0,58,0.00,,,0.00,WUHU216HW,2013-07-26 03:09:00,
2013-07-25 22:14:00,83.1,65.7,29.97,North,0,0.0,0.0,57,0.00,,,0.00,WUHU216HW,2013-07-26 03:14:00,
2013-07-25 22:19:00,83.1,65.7,29.97,North,0,0.0,0.0,57,0.00,,,0.00,WUHU216HW,2013-07-26 03:19:00,
2013-07-25 22:58:00,82.5,67.2,29.99,North,0,0.0,0.0,60,0.00,,,0.00,WUHU216HW,2013-07-26 03:58:00,
2013-07-25 23:03:00,82.5,67.2,29.99,North,0,0.0,0.0,60,0.00,,,0.00,WUHU216HW,2013-07-26 04:03:00,